createdAt,value
2017-07-23T00:01:26.386Z,69.01
2017-07-23T00:02:13.490Z,69.3
2017-07-23T00:03:13.427Z,69.3
2017-07-23T00:04:13.353Z,69.07
2017-07-23T00:05:13.279Z,69.07
2017-07-23T00:06:13.618Z,69.1
2017-07-23T00:07:13.158Z,69.26
2017-07-23T00:08:13.103Z,69.46
2017-07-23T00:09:12.752Z,69.4
2017-07-23T00:10:12.973Z,69.01
2017-07-23T00:11:12.907Z,69.17
2017-07-23T00:12:12.560Z,69.1
2017-07-23T00:13:12.883Z,68.98
2017-07-23T00:14:12.739Z,69.49
2017-07-23T00:15:12.693Z,69.3
2017-07-23T00:16:12.617Z,68.91
2017-07-23T00:17:12.551Z,69.1
2017-07-23T00:18:12.499Z,68.88
2017-07-23T00:19:12.131Z,69.01
2017-07-23T00:20:12.375Z,69.26
2017-07-23T00:21:12.301Z,69.78
2017-07-23T00:22:12.246Z,69.07
2017-07-23T00:23:12.201Z,69.1
2017-07-23T00:24:11.822Z,69.3
2017-07-23T00:25:11.963Z,69.36
2017-07-23T00:26:12.001Z,69.49
2017-07-23T00:27:11.946Z,69.07
2017-07-23T00:28:11.888Z,69.17
2017-07-23T00:29:11.837Z,69.3
2017-07-23T00:30:11.773Z,69.68
2017-07-23T00:31:11.698Z,69.49
2017-07-23T00:32:11.775Z,69.36
2017-07-23T00:33:11.586Z,69.4
2017-07-23T00:34:11.499Z,69.1
2017-07-23T00:35:11.458Z,69.26
2017-07-23T00:36:11.387Z,69.74
2017-07-23T00:37:11.351Z,69.26
2017-07-23T00:38:11.267Z,69.26
2017-07-23T00:39:11.198Z,69.74
2017-07-23T00:40:11.133Z,69.74
2017-07-23T00:41:11.087Z,69.49
2017-07-23T00:42:11.035Z,69.65
2017-07-23T00:43:10.974Z,69.56
2017-07-23T00:44:10.904Z,69.56
2017-07-23T00:45:10.839Z,69.26
2017-07-23T00:46:10.779Z,69.56
2017-07-23T00:47:10.704Z,69.65
2017-07-23T00:48:10.694Z,69.74
2017-07-23T00:49:10.584Z,69.65
2017-07-23T00:50:10.535Z,69.78
2017-07-23T00:51:10.482Z,69.68
2017-07-23T00:52:10.444Z,69.65
2017-07-23T00:53:10.338Z,69.78
2017-07-23T00:54:10.286Z,69.65
2017-07-23T00:55:10.239Z,69.74
2017-07-23T00:56:09.872Z,69.84
2017-07-23T00:57:10.099Z,69.65
2017-07-23T00:58:10.030Z,69.46
2017-07-23T00:59:09.995Z,69.65
2017-07-23T01:00:09.912Z,69.56
2017-07-23T01:01:09.871Z,69.74
2017-07-23T01:02:09.507Z,69.98
2017-07-23T01:03:10.038Z,69.68
2017-07-23T01:04:09.674Z,69.46
2017-07-23T01:05:09.603Z,69.65
2017-07-23T01:06:09.539Z,69.65
2017-07-23T01:07:09.501Z,69.65
2017-07-23T01:08:09.720Z,69.65
2017-07-23T01:09:09.087Z,69.74
2017-07-23T01:10:09.340Z,69.84
2017-07-23T01:11:09.252Z,69.56
2017-07-23T01:12:09.189Z,69.68
2017-07-23T01:13:09.140Z,69.84
2017-07-23T01:14:09.062Z,69.56
2017-07-23T01:15:08.991Z,69.68
2017-07-23T01:16:08.943Z,69.84
2017-07-23T01:17:09.013Z,69.74
2017-07-23T01:18:08.803Z,69.46
2017-07-23T01:19:08.769Z,69.46
2017-07-23T01:20:08.699Z,69.65
2017-07-23T01:21:08.623Z,69.56
2017-07-23T01:22:08.591Z,69.65
2017-07-23T01:23:08.508Z,69.59
2017-07-23T01:24:08.148Z,69.56
2017-07-23T01:25:08.400Z,69.84
2017-07-23T01:26:08.319Z,69.74
2017-07-23T01:27:08.265Z,69.56
2017-07-23T01:28:08.206Z,69.74
2017-07-23T01:29:08.135Z,69.84
2017-07-23T01:30:07.780Z,69.65
2017-07-23T01:31:08.034Z,69.84
2017-07-23T01:32:07.657Z,69.56
2017-07-23T01:33:07.884Z,69.46
2017-07-23T01:34:07.836Z,69.74
2017-07-23T01:35:07.762Z,69.56
2017-07-23T01:36:07.736Z,69.36
2017-07-23T01:37:07.690Z,69.84
2017-07-23T01:38:07.609Z,69.65
2017-07-23T01:39:07.807Z,69.36
2017-07-23T01:40:07.480Z,69.56
2017-07-23T01:41:07.416Z,69.36
2017-07-23T01:42:07.344Z,69.36
2017-07-23T01:43:07.300Z,69.26
2017-07-23T01:44:07.386Z,69.07
2017-07-23T01:45:07.354Z,69.26
2017-07-23T01:46:07.099Z,69.46
2017-07-23T01:47:07.043Z,69.56
2017-07-23T01:48:06.981Z,69.65
2017-07-23T01:49:06.947Z,69.26
2017-07-23T01:50:06.873Z,69.26
2017-07-23T01:51:06.799Z,69.56
2017-07-23T01:52:06.734Z,69.46
2017-07-23T01:53:06.661Z,69.65
2017-07-23T01:54:06.622Z,69.65
2017-07-23T01:55:06.566Z,69.46
2017-07-23T01:56:06.494Z,69.56
2017-07-23T01:57:06.440Z,69.36
2017-07-23T01:58:06.379Z,69.56
2017-07-23T01:59:06.309Z,69.65
2017-07-23T02:00:06.507Z,69.46
2017-07-23T02:01:06.170Z,69.65
2017-07-23T02:02:06.137Z,69.56
2017-07-23T02:03:06.073Z,69.65
2017-07-23T02:04:06.013Z,69.56
2017-07-23T02:05:05.934Z,69.84
2017-07-23T02:06:05.864Z,69.68
2017-07-23T02:07:05.513Z,69.56
2017-07-23T02:08:05.450Z,69.65
2017-07-23T02:09:05.702Z,69.65
2017-07-23T02:10:05.341Z,69.65
2017-07-23T02:11:05.267Z,69.46
2017-07-23T02:12:05.506Z,69.65
2017-07-23T02:13:05.142Z,69.74
2017-07-23T02:14:05.390Z,69.94
2017-07-23T02:15:05.313Z,69.84
2017-07-23T02:16:05.264Z,69.46
2017-07-23T02:17:05.201Z,69.56
2017-07-23T02:18:05.137Z,70.32
2017-07-23T02:19:05.069Z,69.74
2017-07-23T02:20:05.029Z,69.94
2017-07-23T02:21:04.957Z,69.74
2017-07-23T02:22:04.601Z,69.56
2017-07-23T02:23:04.837Z,69.94
2017-07-23T02:24:04.785Z,70.32
2017-07-23T02:25:04.711Z,69.84
2017-07-23T02:26:04.654Z,70.42
2017-07-23T02:27:04.575Z,70.14
2017-07-23T02:28:04.529Z,69.84
2017-07-23T02:29:04.477Z,69.94
2017-07-23T02:30:04.406Z,69.74
2017-07-23T02:31:04.345Z,70.23
2017-07-23T02:32:04.282Z,69.94
2017-07-23T02:33:04.234Z,70.42
2017-07-23T02:34:04.150Z,70.14
2017-07-23T02:35:04.112Z,70.23
2017-07-23T02:36:04.049Z,69.94
2017-07-23T02:37:04.022Z,69.94
2017-07-23T02:38:03.912Z,70.32
2017-07-23T02:39:03.858Z,70.23
2017-07-23T02:40:03.514Z,69.84
2017-07-23T02:41:03.734Z,70.32
2017-07-23T02:42:03.665Z,70.23
2017-07-23T02:43:03.605Z,70.32
2017-07-23T02:44:03.556Z,70.04
2017-07-23T02:45:03.482Z,69.94
2017-07-23T02:46:03.471Z,70.23
2017-07-23T02:47:03.360Z,69.94
2017-07-23T02:48:03.318Z,69.94
2017-07-23T02:49:03.229Z,70.23
2017-07-23T02:50:03.170Z,70.04
2017-07-23T02:51:03.124Z,69.94
2017-07-23T02:52:03.065Z,69.94
2017-07-23T02:53:02.989Z,70.23
2017-07-23T02:54:02.930Z,69.94
2017-07-23T02:55:02.859Z,69.94
2017-07-23T02:56:02.813Z,70.04
2017-07-23T02:57:02.751Z,70.23
2017-07-23T02:58:02.677Z,70.04
2017-07-23T02:59:02.623Z,70.23
2017-07-23T03:00:02.576Z,70.32
2017-07-23T03:01:02.488Z,70.23
2017-07-23T03:02:02.441Z,70.04
2017-07-23T03:03:02.368Z,69.94
2017-07-23T03:04:02.334Z,69.94
2017-07-23T03:05:02.259Z,69.94
2017-07-23T03:06:02.195Z,70.23
2017-07-23T03:07:02.120Z,70.04
2017-07-23T03:08:02.073Z,69.94
2017-07-23T03:09:02.007Z,70.23
2017-07-23T03:10:01.960Z,70.04
2017-07-23T03:11:01.879Z,70.32
2017-07-23T03:12:01.834Z,70.32
2017-07-23T03:13:01.766Z,70.23
2017-07-23T03:14:01.714Z,70.14
2017-07-23T03:15:01.645Z,69.94
2017-07-23T03:16:01.595Z,70.04
2017-07-23T03:17:01.520Z,69.94
2017-07-23T03:18:01.148Z,70.23
2017-07-23T03:19:01.406Z,70.23
2017-07-23T03:20:01.351Z,70.23
2017-07-23T03:21:01.293Z,69.84
2017-07-23T03:22:01.229Z,70.42
2017-07-23T03:23:01.141Z,69.84
2017-07-23T03:24:01.085Z,70.04
2017-07-23T03:25:01.046Z,70.32
2017-07-23T03:26:00.985Z,70.32
2017-07-23T03:27:00.915Z,70.23
2017-07-23T03:28:00.843Z,69.84
2017-07-23T03:29:00.782Z,70.32
2017-07-23T03:30:00.728Z,70.32
2017-07-23T03:31:00.663Z,69.84
2017-07-23T03:32:00.613Z,69.84
2017-07-23T03:33:00.551Z,69.74
2017-07-23T03:34:00.491Z,70.04
2017-07-23T03:35:00.430Z,70.04
2017-07-23T03:36:00.362Z,70.14
2017-07-23T03:37:00.304Z,70.23
2017-07-23T03:38:00.222Z,70.04
2017-07-23T03:39:00.159Z,69.84
2017-07-23T03:39:59.808Z,69.94
2017-07-23T03:41:00.039Z,70.23
2017-07-23T03:41:59.989Z,70.23
2017-07-23T03:42:59.933Z,69.94
2017-07-23T03:43:59.876Z,70.04
2017-07-23T03:44:59.815Z,69.94
2017-07-23T03:45:59.745Z,70.23
2017-07-23T03:46:59.670Z,69.84
2017-07-23T03:47:59.608Z,70.32
2017-07-23T03:48:59.569Z,69.94
2017-07-23T03:49:59.485Z,70.04
2017-07-23T03:50:59.450Z,69.74
2017-07-23T03:51:59.386Z,69.84
2017-07-23T03:52:59.309Z,70.14
2017-07-23T03:53:59.241Z,70.32
2017-07-23T03:54:59.179Z,70.23
2017-07-23T03:55:59.125Z,70.32
2017-07-23T03:56:59.055Z,69.84
2017-07-23T03:57:59.009Z,69.94
2017-07-23T03:58:58.955Z,70.14
2017-07-23T03:59:58.870Z,70.23
2017-07-23T04:00:58.820Z,70.23
2017-07-23T04:02:05.226Z,69.74
2017-07-23T04:02:58.711Z,70.14
2017-07-23T04:03:58.642Z,70.32
2017-07-23T04:04:58.566Z,70.04
2017-07-23T04:05:58.504Z,70.04
2017-07-23T04:06:58.143Z,70.23
2017-07-23T04:07:58.395Z,69.84
2017-07-23T04:08:58.344Z,70.04
2017-07-23T04:09:58.286Z,69.84
2017-07-23T04:10:58.227Z,69.84
2017-07-23T04:11:58.145Z,69.84
2017-07-23T04:12:58.097Z,69.74
2017-07-23T04:13:58.021Z,70.23
2017-07-23T04:14:57.950Z,69.94
2017-07-23T04:15:57.886Z,70.23
2017-07-23T04:16:57.840Z,70.14
2017-07-23T04:17:57.792Z,69.94
2017-07-23T04:18:57.730Z,69.84
2017-07-23T04:19:57.647Z,69.94
2017-07-23T04:20:57.598Z,70.23
2017-07-23T04:21:57.544Z,70.04
2017-07-23T04:22:57.475Z,69.94
2017-07-23T04:23:57.400Z,69.94
2017-07-23T04:24:57.353Z,69.94
2017-07-23T04:25:57.277Z,69.94
2017-07-23T04:26:56.931Z,69.94
2017-07-23T04:27:57.180Z,69.84
2017-07-23T04:28:57.113Z,70.32
2017-07-23T04:29:57.051Z,69.84
2017-07-23T04:30:56.987Z,70.32
2017-07-23T04:31:56.932Z,70.32
2017-07-23T04:32:56.871Z,70.23
2017-07-23T04:33:56.798Z,70.23
2017-07-23T04:34:56.724Z,70.32
2017-07-23T04:35:56.675Z,70.23
2017-07-23T04:36:56.614Z,70.32
2017-07-23T04:37:56.564Z,69.94
2017-07-23T04:38:56.479Z,70.23
2017-07-23T04:39:56.439Z,70.32
2017-07-23T04:40:56.387Z,69.94
2017-07-23T04:41:56.310Z,70.23
2017-07-23T04:42:56.241Z,69.94
2017-07-23T04:43:56.185Z,70.32
2017-07-23T04:44:56.112Z,70.23
2017-07-23T04:45:56.074Z,69.94
2017-07-23T04:46:55.992Z,69.94
2017-07-23T04:47:55.954Z,69.94
2017-07-23T04:48:55.861Z,70.32
2017-07-23T04:49:55.824Z,70.23
2017-07-23T04:50:55.754Z,70.04
2017-07-23T04:51:55.686Z,70.04
2017-07-23T04:52:55.332Z,69.94
2017-07-23T04:53:55.555Z,70.23
2017-07-23T04:54:55.495Z,70.04
2017-07-23T04:55:55.456Z,70.23
2017-07-23T04:56:55.386Z,70.32
2017-07-23T04:57:55.323Z,70.23
2017-07-23T04:58:55.272Z,70.23
2017-07-23T04:59:55.213Z,70.32
2017-07-23T05:00:55.129Z,70.04
2017-07-23T05:01:55.081Z,70.04
2017-07-23T05:02:55.013Z,69.94
2017-07-23T05:03:54.967Z,69.94
2017-07-23T05:04:54.889Z,70.04
2017-07-23T05:05:54.835Z,70.04
2017-07-23T05:06:54.777Z,70.14
2017-07-23T05:07:54.710Z,70.23
2017-07-23T05:08:54.636Z,69.94
2017-07-23T05:09:54.598Z,69.94
2017-07-23T05:10:54.621Z,70.42
2017-07-23T05:11:54.475Z,70.32
2017-07-23T05:12:54.409Z,70.32
2017-07-23T05:13:54.327Z,70.32
2017-07-23T05:14:53.973Z,69.74
2017-07-23T05:15:53.916Z,70.23
2017-07-23T05:16:54.158Z,70.32
2017-07-23T05:17:54.106Z,70.14
2017-07-23T05:18:54.027Z,69.84
2017-07-23T05:19:53.960Z,70.14
2017-07-23T05:20:53.910Z,69.84
2017-07-23T05:21:53.560Z,70.14
2017-07-23T05:22:53.789Z,69.94
2017-07-23T05:23:53.434Z,69.65
2017-07-23T05:24:53.661Z,69.94
2017-07-23T05:25:53.591Z,69.84
2017-07-23T05:26:53.527Z,69.84
2017-07-23T05:27:53.494Z,69.74
2017-07-23T05:28:53.419Z,69.65
2017-07-23T05:29:53.359Z,69.74
2017-07-23T05:30:53.298Z,69.74
2017-07-23T05:31:53.462Z,69.56
2017-07-23T05:32:53.161Z,69.65
2017-07-23T05:33:53.109Z,69.56
2017-07-23T05:34:53.036Z,69.56
2017-07-23T05:35:53.012Z,69.84
2017-07-23T05:36:52.913Z,69.65
2017-07-23T05:37:52.852Z,69.56
2017-07-23T05:38:52.791Z,69.74
2017-07-23T05:39:52.744Z,69.74
2017-07-23T05:40:52.693Z,70.52
2017-07-23T05:41:52.632Z,69.65
2017-07-23T05:42:52.561Z,70.04
2017-07-23T05:43:52.485Z,69.84
2017-07-23T05:44:52.452Z,69.74
2017-07-23T05:45:52.364Z,69.74
2017-07-23T05:46:52.316Z,69.94
2017-07-23T05:47:52.247Z,69.94
2017-07-23T05:48:52.180Z,69.84
2017-07-23T05:49:52.140Z,69.46
2017-07-23T05:50:52.080Z,70.04
2017-07-23T05:51:52.010Z,69.94
2017-07-23T05:52:51.932Z,69.84
2017-07-23T05:53:51.885Z,69.84
2017-07-23T05:54:51.835Z,69.74
2017-07-23T05:55:51.769Z,69.84
2017-07-23T05:56:51.711Z,69.74
2017-07-23T05:57:51.651Z,70.14
2017-07-23T05:58:51.581Z,70.42
2017-07-23T05:59:51.526Z,70.14
2017-07-23T06:00:51.458Z,70.14
2017-07-23T06:01:51.390Z,69.84
2017-07-23T06:02:51.546Z,69.84
2017-07-23T06:03:50.954Z,69.56
2017-07-23T06:04:51.195Z,69.56
2017-07-23T06:05:51.149Z,70.23
2017-07-23T06:06:51.095Z,69.56
2017-07-23T06:07:50.711Z,69.56
2017-07-23T06:08:50.963Z,69.74
2017-07-23T06:09:50.904Z,69.56
2017-07-23T06:10:50.850Z,69.56
2017-07-23T06:11:50.793Z,69.65
2017-07-23T06:12:50.720Z,69.17
2017-07-23T06:13:50.652Z,69.26
2017-07-23T06:14:50.590Z,69.36
2017-07-23T06:15:50.544Z,69.36
2017-07-23T06:16:50.475Z,69.36
2017-07-23T06:17:50.105Z,69.56
2017-07-23T06:18:50.350Z,69.56
2017-07-23T06:19:50.291Z,69.46
2017-07-23T06:20:50.227Z,69.65
2017-07-23T06:21:50.180Z,69.56
2017-07-23T06:22:50.114Z,69.46
2017-07-23T06:23:50.055Z,69.65
2017-07-23T06:24:49.978Z,69.46
2017-07-23T06:25:49.929Z,69.56
2017-07-23T06:26:49.860Z,69.56
2017-07-23T06:27:49.807Z,69.65
2017-07-23T06:28:49.738Z,69.74
2017-07-23T06:29:49.685Z,70.32
2017-07-23T06:30:49.723Z,69.74
2017-07-23T06:31:49.552Z,69.46
2017-07-23T06:32:49.491Z,69.65
2017-07-23T06:33:49.425Z,69.26
2017-07-23T06:34:49.383Z,69.56
2017-07-23T06:35:49.291Z,69.56
2017-07-23T06:36:48.953Z,69.94
2017-07-23T06:37:49.194Z,69.94
2017-07-23T06:38:49.123Z,70.32
2017-07-23T06:39:49.061Z,70.32
2017-07-23T06:40:49.012Z,70.32
2017-07-23T06:41:48.933Z,69.56
2017-07-23T06:42:48.886Z,70.42
2017-07-23T06:43:48.817Z,70.23
2017-07-23T06:44:48.764Z,70.23
2017-07-23T06:45:48.703Z,70.42
2017-07-23T06:46:48.651Z,70.23
2017-07-23T06:47:48.564Z,69.94
2017-07-23T06:48:48.520Z,69.84
2017-07-23T06:49:48.432Z,69.94
2017-07-23T06:50:48.372Z,69.74
2017-07-23T06:51:48.334Z,69.84
2017-07-23T06:52:48.261Z,70.14
2017-07-23T06:53:48.214Z,70.23
2017-07-23T06:54:48.353Z,70.23
2017-07-23T06:55:48.090Z,70.14
2017-07-23T06:56:48.026Z,70.23
2017-07-23T06:57:47.965Z,69.94
2017-07-23T06:58:47.895Z,69.94
2017-07-23T06:59:47.819Z,70.04
2017-07-23T07:00:47.474Z,70.04
2017-07-23T07:01:47.710Z,70.23
2017-07-23T07:02:47.802Z,70.23
2017-07-23T07:03:47.578Z,70.14
2017-07-23T07:04:47.537Z,70.32
2017-07-23T07:05:47.476Z,70.32
2017-07-23T07:06:47.397Z,70.23
2017-07-23T07:07:47.343Z,70.14
2017-07-23T07:08:47.293Z,70.52
2017-07-23T07:09:47.207Z,70.04
2017-07-23T07:10:47.143Z,70.42
2017-07-23T07:11:46.802Z,70.23
2017-07-23T07:12:47.030Z,70.52
2017-07-23T07:13:46.981Z,70.32
2017-07-23T07:14:46.899Z,70.62
2017-07-23T07:15:46.849Z,70.42
2017-07-23T07:16:46.801Z,70.72
2017-07-23T07:17:46.713Z,70.04
2017-07-23T07:18:46.371Z,70.04
2017-07-23T07:19:46.591Z,70.14
2017-07-23T07:21:01.285Z,70.14
2017-07-23T07:21:46.482Z,70.14
2017-07-23T07:22:46.436Z,70.23
2017-07-23T07:23:46.357Z,70.32
2017-07-23T07:24:46.296Z,70.23
2017-07-23T07:25:46.235Z,70.32
2017-07-23T07:26:46.159Z,70.04
2017-07-23T07:27:46.108Z,70.14
2017-07-23T07:28:46.053Z,70.04
2017-07-23T07:29:45.990Z,70.23
2017-07-23T07:30:45.937Z,70.23
2017-07-23T07:31:45.870Z,70.14
2017-07-23T07:32:45.794Z,70.04
2017-07-23T07:33:45.758Z,70.23
2017-07-23T07:34:45.671Z,70.32
2017-07-23T07:35:45.633Z,70.14
2017-07-23T07:36:45.572Z,70.04
2017-07-23T07:37:45.518Z,70.14
2017-07-23T07:38:45.451Z,70.14
2017-07-23T07:39:45.388Z,70.23
2017-07-23T07:40:45.316Z,70.14
2017-07-23T07:41:45.250Z,70.14
2017-07-23T07:42:44.889Z,70.23
2017-07-23T07:43:45.143Z,70.14
2017-07-23T07:44:44.769Z,69.94
2017-07-23T07:45:45.000Z,70.04
2017-07-23T07:46:44.643Z,70.04
2017-07-23T07:47:44.892Z,70.14
2017-07-23T07:48:44.811Z,70.14
2017-07-23T07:49:44.773Z,70.14
2017-07-23T07:50:44.701Z,70.14
2017-07-23T07:51:44.639Z,69.94
2017-07-23T07:52:44.592Z,69.94
2017-07-23T07:53:44.507Z,70.52
2017-07-23T07:54:44.443Z,70.32
2017-07-23T07:55:44.405Z,69.84
2017-07-23T07:56:44.020Z,70.14
2017-07-23T07:57:44.296Z,70.23
2017-07-23T07:58:44.209Z,70.32
2017-07-23T07:59:44.152Z,70.23
2017-07-23T08:00:44.088Z,69.94
2017-07-23T08:01:44.218Z,70.62
2017-07-23T08:02:47.823Z,70.62
2017-07-23T08:03:43.912Z,69.94
2017-07-23T08:04:43.873Z,70.23
2017-07-23T08:05:43.793Z,70.14
2017-07-23T08:06:43.749Z,70.52
2017-07-23T08:07:43.368Z,70.42
2017-07-23T08:08:43.599Z,70.14
2017-07-23T08:09:43.536Z,70.42
2017-07-23T08:10:43.476Z,70.42
2017-07-23T08:11:43.417Z,70.62
2017-07-23T08:12:43.066Z,70.42
2017-07-23T08:13:43.283Z,70.42
2017-07-23T08:14:43.241Z,70.32
2017-07-23T08:15:43.168Z,70.52
2017-07-23T08:16:43.115Z,70.52
2017-07-23T08:17:43.030Z,70.23
2017-07-23T08:18:42.975Z,70.42
2017-07-23T08:19:42.911Z,70.04
2017-07-23T08:20:42.569Z,70.23
2017-07-23T08:21:42.796Z,70.42
2017-07-23T08:22:42.734Z,70.52
2017-07-23T08:23:42.690Z,70.42
2017-07-23T08:24:42.628Z,70.14
2017-07-23T08:25:42.550Z,70.14
2017-07-23T08:26:42.192Z,70.42
2017-07-23T08:27:42.136Z,70.14
2017-07-23T08:28:42.084Z,70.72
2017-07-23T08:29:42.313Z,70.62
2017-07-23T08:30:42.254Z,70.23
2017-07-23T08:31:42.195Z,70.52
2017-07-23T08:32:42.138Z,70.42
2017-07-23T08:33:42.060Z,70.62
2017-07-23T08:34:41.987Z,70.42
2017-07-23T08:35:41.943Z,70.32
2017-07-23T08:36:41.880Z,70.52
2017-07-23T08:37:41.513Z,70.32
2017-07-23T08:38:41.762Z,70.62
2017-07-23T08:39:41.723Z,70.72
2017-07-23T08:40:41.627Z,69.84
2017-07-23T08:41:41.581Z,70.14
2017-07-23T08:42:41.200Z,69.84
2017-07-23T08:43:41.444Z,70.62
2017-07-23T08:44:41.381Z,70.04
2017-07-23T08:45:41.338Z,69.84
2017-07-23T08:46:41.259Z,70.52
2017-07-23T08:47:41.197Z,70.42
2017-07-23T08:48:41.150Z,70.62
2017-07-23T08:49:41.081Z,70.14
2017-07-23T08:50:41.008Z,70.42
2017-07-23T08:51:40.941Z,70.14
2017-07-23T08:52:40.894Z,70.42
2017-07-23T08:53:40.821Z,70.62
2017-07-23T08:54:40.759Z,70.42
2017-07-23T08:55:40.720Z,70.42
2017-07-23T08:56:40.716Z,69.94
2017-07-23T08:57:40.583Z,70.32
2017-07-23T08:58:40.536Z,70.42
2017-07-23T08:59:40.482Z,70.14
2017-07-23T09:00:40.415Z,70.23
2017-07-23T09:01:40.037Z,70.04
2017-07-23T09:02:40.293Z,70.23
2017-07-23T09:03:40.216Z,70.32
2017-07-23T09:04:40.163Z,70.32
2017-07-23T09:05:40.100Z,70.42
2017-07-23T09:06:40.023Z,70.04
2017-07-23T09:07:39.973Z,70.32
2017-07-23T09:08:39.926Z,70.42
2017-07-23T09:09:39.861Z,70.14
2017-07-23T09:10:39.786Z,70.42
2017-07-23T09:11:39.422Z,70.14
2017-07-23T09:12:39.661Z,70.04
2017-07-23T09:13:39.804Z,70.52
2017-07-23T09:14:39.546Z,70.42
2017-07-23T09:15:39.469Z,70.23
2017-07-23T09:16:39.116Z,70.23
2017-07-23T09:17:39.056Z,70.14
2017-07-23T09:18:39.310Z,70.32
2017-07-23T09:19:39.238Z,70.32
2017-07-23T09:20:38.881Z,70.23
2017-07-23T09:21:39.099Z,70.42
2017-07-23T09:22:39.070Z,70.42
2017-07-23T09:23:38.976Z,70.23
2017-07-23T09:24:38.928Z,70.42
2017-07-23T09:25:38.854Z,70.14
2017-07-23T09:26:38.794Z,69.94
2017-07-23T09:27:38.733Z,70.14
2017-07-23T09:28:38.673Z,70.62
2017-07-23T09:29:38.620Z,70.62
2017-07-23T09:30:38.551Z,70.62
2017-07-23T09:31:38.498Z,70.23
2017-07-23T09:32:38.139Z,70.52
2017-07-23T09:33:38.379Z,69.84
2017-07-23T09:34:38.303Z,69.94
2017-07-23T09:35:38.258Z,70.23
2017-07-23T09:36:38.203Z,70.04
2017-07-23T09:37:38.121Z,70.52
2017-07-23T09:38:38.067Z,70.62
2017-07-23T09:39:38.023Z,70.14
2017-07-23T09:40:37.978Z,70.04
2017-07-23T09:41:37.893Z,70.14
2017-07-23T09:42:37.839Z,70.04
2017-07-23T09:43:37.776Z,70.23
2017-07-23T09:44:37.691Z,70.32
2017-07-23T09:45:37.630Z,70.14
2017-07-23T09:46:37.580Z,70.23
2017-07-23T09:47:37.520Z,70.23
2017-07-23T09:48:37.469Z,70.32
2017-07-23T09:49:37.407Z,70.32
2017-07-23T09:50:37.039Z,70.23
2017-07-23T09:51:37.265Z,70.32
2017-07-23T09:52:37.200Z,69.84
2017-07-23T09:53:37.161Z,69.84
2017-07-23T09:54:37.088Z,69.94
2017-07-23T09:55:37.015Z,70.14
2017-07-23T09:56:36.970Z,69.84
2017-07-23T09:57:36.919Z,69.84
2017-07-23T09:58:36.847Z,69.84
2017-07-23T09:59:36.792Z,70.23
2017-07-23T10:00:36.708Z,69.84
2017-07-23T10:01:36.364Z,70.32
2017-07-23T10:02:36.602Z,70.14
2017-07-23T10:03:36.752Z,70.32
2017-07-23T10:04:36.474Z,69.84
2017-07-23T10:05:36.119Z,70.04
2017-07-23T10:06:36.351Z,69.94
2017-07-23T10:07:36.279Z,69.94
2017-07-23T10:08:36.229Z,70.42
2017-07-23T10:09:36.182Z,69.94
2017-07-23T10:10:36.102Z,69.74
2017-07-23T10:11:36.035Z,69.84
2017-07-23T10:12:35.990Z,70.14
2017-07-23T10:13:35.923Z,69.56
2017-07-23T10:14:35.760Z,69.74
2017-07-23T10:15:35.811Z,69.74
2017-07-23T10:16:35.736Z,69.56
2017-07-23T10:17:35.674Z,69.46
2017-07-23T10:18:35.621Z,69.56
2017-07-23T10:19:35.555Z,69.46
2017-07-23T10:20:35.481Z,69.36
2017-07-23T10:21:35.443Z,69.36
2017-07-23T10:22:35.372Z,69.46
2017-07-23T10:23:35.333Z,69.56
2017-07-23T10:24:34.954Z,69.36
2017-07-23T10:25:34.884Z,69.36
2017-07-23T10:26:35.120Z,69.26
2017-07-23T10:27:35.060Z,69.74
2017-07-23T10:28:35.002Z,69.74
2017-07-23T10:29:34.952Z,69.56
2017-07-23T10:30:34.573Z,69.26
2017-07-23T10:31:34.521Z,69.84
2017-07-23T10:32:34.788Z,69.74
2017-07-23T10:33:34.383Z,69.84
2017-07-23T10:34:34.663Z,69.84
2017-07-23T10:35:34.562Z,69.56
2017-07-23T10:36:34.514Z,69.65
2017-07-23T10:37:34.458Z,69.84
2017-07-23T10:38:34.387Z,69.84
2017-07-23T10:39:34.326Z,69.65
2017-07-23T10:40:34.267Z,69.65
2017-07-23T10:41:34.211Z,69.65
2017-07-23T10:42:34.140Z,69.46
2017-07-23T10:43:34.080Z,69.36
2017-07-23T10:44:34.012Z,69.26
2017-07-23T10:45:34.173Z,69.56
2017-07-23T10:46:33.895Z,69.65
2017-07-23T10:47:33.843Z,69.46
2017-07-23T10:48:33.788Z,69.26
2017-07-23T10:49:33.722Z,69.26
2017-07-23T10:50:33.660Z,69.07
2017-07-23T10:51:33.604Z,69.26
2017-07-23T10:52:33.540Z,69.26
2017-07-23T10:53:33.487Z,68.88
2017-07-23T10:54:33.418Z,68.78
2017-07-23T10:55:34.070Z,68.68
2017-07-23T10:56:32.985Z,68.59
2017-07-23T10:57:33.220Z,68.98
2017-07-23T10:58:33.164Z,68.68
2017-07-23T10:59:33.105Z,68.59
2017-07-23T11:00:33.160Z,68.59
2017-07-23T11:01:33.255Z,68.62
2017-07-23T11:02:32.922Z,68.59
2017-07-23T11:03:33.150Z,69.07
2017-07-23T11:04:32.807Z,68.78
2017-07-23T11:05:32.742Z,68.91
2017-07-23T11:06:32.660Z,68.78
2017-07-23T11:07:32.616Z,68.4
2017-07-23T11:08:32.549Z,68.82
2017-07-23T11:09:32.501Z,68.43
2017-07-23T11:10:32.432Z,68.52
2017-07-23T11:11:32.370Z,68.43
2017-07-23T11:12:32.307Z,68.43
2017-07-23T11:13:32.249Z,68.04
2017-07-23T11:14:32.182Z,68.4
2017-07-23T11:15:32.121Z,68.49
2017-07-23T11:16:32.052Z,68.68
2017-07-23T11:17:31.987Z,68.59
2017-07-23T11:18:31.941Z,68.4
2017-07-23T11:19:31.882Z,68.2
2017-07-23T11:20:31.814Z,68.04
2017-07-23T11:21:31.768Z,67.82
2017-07-23T11:22:31.691Z,68.04
2017-07-23T11:23:31.629Z,67.82
2017-07-23T11:24:31.587Z,67.82
2017-07-23T11:25:31.214Z,67.94
2017-07-23T11:26:31.456Z,67.94
2017-07-23T11:27:31.404Z,68.04
2017-07-23T11:28:31.321Z,68.14
2017-07-23T11:29:31.259Z,68.01
2017-07-23T11:30:31.201Z,68.14
2017-07-23T11:31:31.142Z,68.04
2017-07-23T11:32:31.085Z,68.04
2017-07-23T11:33:30.714Z,68.14
2017-07-23T11:34:30.956Z,67.62
2017-07-23T11:35:30.901Z,67.94
2017-07-23T11:36:30.826Z,67.94
2017-07-23T11:37:30.778Z,67.66
2017-07-23T11:38:30.411Z,68.04
2017-07-23T11:39:30.644Z,67.85
2017-07-23T11:40:30.579Z,67.94
2017-07-23T11:41:30.540Z,67.85
2017-07-23T11:42:30.498Z,67.75
2017-07-23T11:43:30.417Z,68.04
2017-07-23T11:44:30.344Z,67.94
2017-07-23T11:45:30.283Z,67.94
2017-07-23T11:46:30.224Z,67.94
2017-07-23T11:47:30.165Z,67.82
2017-07-23T11:48:30.120Z,67.66
2017-07-23T11:49:30.041Z,67.94
2017-07-23T11:50:29.975Z,67.46
2017-07-23T11:51:29.928Z,67.75
2017-07-23T11:52:29.853Z,67.56
2017-07-23T11:53:29.782Z,67.75
2017-07-23T11:54:29.720Z,67.17
2017-07-23T11:55:29.663Z,67.17
2017-07-23T11:56:29.622Z,67.66
2017-07-23T11:57:29.558Z,67.85
2017-07-23T11:58:29.477Z,67.85
2017-07-23T11:59:29.413Z,67.17
2017-07-23T12:00:29.372Z,67.17
2017-07-23T12:01:28.992Z,67.17
2017-07-23T12:02:29.244Z,67.56
2017-07-23T12:03:29.052Z,67.36
2017-07-23T12:04:29.121Z,67.17
2017-07-23T12:05:29.099Z,67.17
2017-07-23T12:06:29.003Z,67.36
2017-07-23T12:07:28.946Z,67.36
2017-07-23T12:08:28.567Z,67.17
2017-07-23T12:09:28.829Z,67.36
2017-07-23T12:10:28.743Z,67.36
2017-07-23T12:11:28.693Z,67.17
2017-07-23T12:12:28.893Z,67.17
2017-07-23T12:13:28.568Z,67.27
2017-07-23T12:14:28.212Z,67.36
2017-07-23T12:15:28.434Z,67.27
2017-07-23T12:16:28.399Z,67.36
2017-07-23T12:17:28.313Z,67.36
2017-07-23T12:18:28.251Z,67.36
2017-07-23T12:19:28.221Z,67.36
2017-07-23T12:20:28.142Z,67.56
2017-07-23T12:21:28.092Z,67.36
2017-07-23T12:22:28.010Z,67.56
2017-07-23T12:23:27.644Z,67.46
2017-07-23T12:24:27.598Z,67.36
2017-07-23T12:25:27.522Z,67.17
2017-07-23T12:26:27.799Z,67.46
2017-07-23T12:27:27.715Z,67.08
2017-07-23T12:28:27.637Z,66.98
2017-07-23T12:29:27.608Z,67.27
2017-07-23T12:30:27.531Z,67.36
2017-07-23T12:31:27.472Z,67.08
2017-07-23T12:32:27.407Z,67.27
2017-07-23T12:33:27.349Z,67.08
2017-07-23T12:34:27.294Z,67.36
2017-07-23T12:35:27.217Z,67.17
2017-07-23T12:36:27.147Z,67.27
2017-07-23T12:37:27.119Z,67.27
2017-07-23T12:38:27.036Z,67.17
2017-07-23T12:39:26.979Z,67.08
2017-07-23T12:40:26.909Z,67.27
2017-07-23T12:41:26.876Z,67.27
2017-07-23T12:42:26.782Z,67.36
2017-07-23T12:43:26.756Z,67.36
2017-07-23T12:44:26.670Z,67.17
2017-07-23T12:45:26.624Z,67.27
2017-07-23T12:46:26.538Z,67.27
2017-07-23T12:47:26.477Z,66.78
2017-07-23T12:48:26.436Z,66.98
2017-07-23T12:49:26.583Z,66.88
2017-07-23T12:50:26.316Z,66.69
2017-07-23T12:51:26.247Z,66.69
2017-07-23T12:52:26.170Z,66.78
2017-07-23T12:53:26.112Z,66.78